Terminal Aerodrome Forecast
Issued by NWS

Home | Current Version | Previous Version | Graphics & Text | Print | Product List | Glossary On
Versions: 1 2 3 4 5 6 7 8 9 10 11 12 13 14 15 16 17
000
FTUS43 KICT 150500
TAFCNU
TAF
KCNU 150522Z 1506/1606 17010KT P6SM BKN100
     FM151400 21010KT P6SM VCSH BKN120
     FM152000 35009KT P6SM VCSH OVC050
     FM160100 03008KT P6SM VCSH OVC030=

USA.gov is the U.S. government's official web portal to all federal, state and local government web resources and services.